Time;durP1;ratioP1;P1;durP2;ratioP2;P2;SDS_P1;SDS_P2;PMS_P1;PMS_P2;Temp;Humidity;BMP_temperature;BMP_pressure;BME280_temperature;BME280_humidity;BME280_pressure;Samples;Min_cycle;Max_cycle;Signal;HPM_P1;HPM_P2
2024/01/15 00:02:16;;;;;;;29.70;12.57;;;-2.80;99.90;;;;;;5052405;28;20174;-86
2024/01/15 00:04:41;;;;;;;28.73;12.10;;;-2.80;99.90;;;;;;5052427;28;20265;-86
2024/01/15 00:07:08;;;;;;;33.63;12.83;;;-2.80;99.90;;;;;;5050401;28;20212;-86
2024/01/15 00:09:34;;;;;;;28.00;11.00;;;-2.80;99.90;;;;;;5052238;28;20205;-86
2024/01/15 00:12:00;;;;;;;29.13;11.93;;;-2.80;99.90;;;;;;5050939;28;20181;-86
2024/01/15 00:14:26;;;;;;;28.57;12.13;;;-2.80;99.90;;;;;;5052426;28;20205;-86
2024/01/15 00:16:54;;;;;;;26.00;11.33;;;-2.80;99.90;;;;;;5052247;28;20229;-86
2024/01/15 00:19:23;;;;;;;25.93;10.70;;;-2.80;99.90;;;;;;5052185;28;20669;-86
2024/01/15 00:21:50;;;;;;;33.00;12.27;;;-2.80;99.90;;;;;;5051861;28;20173;-86
2024/01/15 00:24:15;;;;;;;24.73;11.10;;;-2.80;99.90;;;;;;5050809;28;20206;-86
2024/01/15 00:26:41;;;;;;;28.27;12.50;;;-2.90;99.90;;;;;;5052423;28;20181;-86
2024/01/15 00:29:07;;;;;;;25.37;11.80;;;-2.90;99.90;;;;;;5050953;28;20220;-86
2024/01/15 00:31:33;;;;;;;29.43;11.70;;;-2.90;99.90;;;;;;5050504;28;20768;-86
2024/01/15 00:33:58;;;;;;;26.37;10.47;;;-2.90;99.90;;;;;;5052374;28;20261;-86
2024/01/15 00:36:24;;;;;;;28.70;12.60;;;-2.90;99.90;;;;;;5050583;28;20206;-86
2024/01/15 00:38:50;;;;;;;27.57;10.90;;;-3.00;99.90;;;;;;5050830;28;20181;-86
2024/01/15 00:41:15;;;;;;;27.70;11.63;;;-3.00;99.90;;;;;;5050281;28;20552;-86
2024/01/15 00:43:41;;;;;;;26.60;10.77;;;-3.00;99.90;;;;;;5052163;28;20186;-86
2024/01/15 00:46:07;;;;;;;27.07;11.40;;;-3.00;99.90;;;;;;5050931;28;20260;-86
2024/01/15 00:48:33;;;;;;;28.53;11.73;;;-3.00;99.90;;;;;;5050923;28;20218;-86
2024/01/15 00:50:58;;;;;;;27.63;10.73;;;-3.00;99.90;;;;;;5050356;28;20227;-86
2024/01/15 00:53:25;;;;;;;25.37;10.77;;;-3.00;99.90;;;;;;5050478;28;20217;-87
2024/01/15 00:55:51;;;;;;;23.10;10.07;;;-2.90;99.90;;;;;;5051814;28;20216;-86
2024/01/15 00:58:16;;;;;;;23.80;10.57;;;-2.90;99.90;;;;;;5052073;28;20170;-87
2024/01/15 01:00:42;;;;;;;24.97;10.23;;;-2.90;99.90;;;;;;5051354;28;20185;-86
2024/01/15 01:03:08;;;;;;;25.73;11.00;;;-2.90;99.90;;;;;;5050638;28;20680;-86
2024/01/15 01:05:34;;;;;;;28.87;11.50;;;-3.00;99.90;;;;;;5050553;28;20529;-86
2024/01/15 01:08:00;;;;;;;24.87;9.77;;;-2.90;99.90;;;;;;5050985;28;20204;-86
2024/01/15 01:10:25;;;;;;;29.33;11.13;;;-2.90;99.90;;;;;;5050398;28;20532;-86
2024/01/15 01:12:51;;;;;;;24.03;10.93;;;-2.90;99.90;;;;;;5052040;28;20200;-86
2024/01/15 01:15:17;;;;;;;25.37;10.50;;;-2.90;99.90;;;;;;5052044;28;20638;-86
2024/01/15 01:17:42;;;;;;;26.80;11.10;;;-3.00;99.90;;;;;;5054725;28;20176;-86
2024/01/15 01:20:10;;;;;;;25.43;10.97;;;-3.00;99.90;;;;;;5054240;28;20180;-85
2024/01/15 01:22:36;;;;;;;24.23;10.23;;;-3.00;99.90;;;;;;5055422;28;20219;-85
2024/01/15 01:25:02;;;;;;;19.57;9.07;;;-3.00;99.90;;;;;;5054693;28;20180;-86
2024/01/15 01:27:27;;;;;;;22.40;9.43;;;-3.00;99.90;;;;;;5055805;28;20181;-86
2024/01/15 01:29:53;;;;;;;24.60;11.00;;;-3.00;99.90;;;;;;5054190;28;20173;-86
2024/01/15 01:32:19;;;;;;;24.50;10.70;;;-3.00;99.90;;;;;;5054795;28;20170;-83
2024/01/15 01:34:44;;;;;;;27.00;11.27;;;-3.00;99.90;;;;;;5053905;28;20639;-86
2024/01/15 01:37:14;;;;;;;25.43;11.20;;;-3.00;99.90;;;;;;5054099;28;20212;-86
2024/01/15 01:39:40;;;;;;;23.90;10.77;;;-3.00;99.90;;;;;;5055220;28;20257;-86
2024/01/15 01:42:06;;;;;;;24.70;10.70;;;-3.00;99.90;;;;;;5053730;28;20184;-86
2024/01/15 01:44:31;;;;;;;23.63;10.90;;;-3.00;99.90;;;;;;5055093;28;20277;-86
2024/01/15 01:46:59;;;;;;;27.37;11.70;;;-3.00;99.90;;;;;;5055153;28;20201;-85
2024/01/15 01:49:25;;;;;;;25.53;9.77;;;-3.00;99.90;;;;;;5054877;28;20201;-86
2024/01/15 01:51:51;;;;;;;23.67;9.73;;;-3.00;99.90;;;;;;5055067;28;20188;-85
2024/01/15 01:54:18;;;;;;;29.30;11.90;;;-3.00;99.90;;;;;;5054777;28;20594;-86
2024/01/15 01:56:45;;;;;;;24.77;10.73;;;-3.10;99.90;;;;;;5053617;28;20204;-86
2024/01/15 01:59:11;;;;;;;21.73;9.63;;;-3.10;99.90;;;;;;5053555;28;20606;-86
2024/01/15 02:01:38;;;;;;;26.37;10.67;;;-3.00;99.90;;;;;;5054351;28;20264;-87
2024/01/15 02:04:04;;;;;;;20.43;9.87;;;-3.00;99.90;;;;;;5053378;28;20197;-86
2024/01/15 02:06:29;;;;;;;23.53;9.87;;;-3.00;99.90;;;;;;5054802;28;20668;-86
2024/01/15 02:08:55;;;;;;;20.70;9.97;;;-3.00;99.90;;;;;;5054778;28;20173;-87
2024/01/15 02:11:21;;;;;;;23.67;11.00;;;-3.00;99.90;;;;;;5054311;28;20181;-85
2024/01/15 02:13:47;;;;;;;20.40;8.83;;;-3.00;99.90;;;;;;5053443;28;20575;-86
2024/01/15 02:16:13;;;;;;;22.20;10.33;;;-3.00;99.90;;;;;;5053492;28;20286;-86
2024/01/15 02:18:42;;;;;;;21.77;10.57;;;-3.00;99.90;;;;;;5054326;28;20173;-86
2024/01/15 02:21:09;;;;;;;21.63;10.20;;;-3.00;99.90;;;;;;5054174;28;20176;-86
2024/01/15 02:23:34;;;;;;;19.67;9.60;;;-3.00;99.90;;;;;;5053109;28;20231;-86
2024/01/15 02:26:01;;;;;;;24.83;10.37;;;-3.00;99.90;;;;;;5054235;28;20236;-86
2024/01/15 02:28:26;;;;;;;24.60;9.97;;;-3.00;99.90;;;;;;5052133;28;20177;-86
2024/01/15 02:30:52;;;;;;;20.23;9.53;;;-3.00;99.90;;;;;;5053722;28;20189;-86
2024/01/15 02:33:17;;;;;;;22.80;10.00;;;-3.00;99.90;;;;;;5052963;28;20198;-86
2024/01/15 02:35:43;;;;;;;24.23;9.77;;;-3.10;99.90;;;;;;5053114;28;20637;-85
2024/01/15 02:38:09;;;;;;;20.07;9.07;;;-3.10;99.90;;;;;;5054390;28;20192;-85
2024/01/15 02:40:35;;;;;;;20.70;9.17;;;-3.10;99.90;;;;;;5052482;28;20223;-86
2024/01/15 02:43:01;;;;;;;23.40;9.60;;;-3.00;99.90;;;;;;5052872;28;20190;-86
2024/01/15 02:45:27;;;;;;;22.40;10.43;;;-3.00;99.90;;;;;;5052618;28;20222;-86
2024/01/15 02:47:52;;;;;;;23.90;10.57;;;-3.00;99.90;;;;;;5053947;28;20181;-86
2024/01/15 02:50:18;;;;;;;21.53;10.10;;;-3.00;99.90;;;;;;5052380;28;20177;-86
2024/01/15 02:52:43;;;;;;;23.13;9.40;;;-3.10;99.90;;;;;;5052655;28;20209;-85
2024/01/15 02:55:09;;;;;;;17.13;8.23;;;-3.00;99.90;;;;;;5052801;28;20201;-85
2024/01/15 02:57:35;;;;;;;22.23;8.93;;;-3.00;99.90;;;;;;5052483;28;20208;-85
2024/01/15 03:00:00;;;;;;;21.13;10.07;;;-3.10;99.90;;;;;;5052076;28;20200;-82
2024/01/15 03:02:26;;;;;;;20.17;9.60;;;-3.00;99.90;;;;;;5052337;28;20170;-85
2024/01/15 03:04:51;;;;;;;19.93;8.33;;;-3.00;99.90;;;;;;5052756;28;20174;-85
2024/01/15 03:07:17;;;;;;;20.10;8.53;;;-3.00;99.90;;;;;;5053842;28;20276;-85
2024/01/15 03:09:43;;;;;;;18.33;7.87;;;-3.00;99.90;;;;;;5053571;28;20181;-86
2024/01/15 03:12:08;;;;;;;18.50;8.87;;;-3.00;99.90;;;;;;5052119;28;20173;-87
2024/01/15 03:14:35;;;;;;;24.77;9.37;;;-3.00;99.90;;;;;;5053275;28;20613;-86
2024/01/15 03:17:00;;;;;;;20.40;9.87;;;-3.00;99.90;;;;;;5052137;28;20202;-86
2024/01/15 03:19:26;;;;;;;22.00;10.20;;;-3.10;99.90;;;;;;5053468;28;20192;-86
2024/01/15 03:21:52;;;;;;;24.00;9.70;;;-3.00;99.90;;;;;;5053269;28;20166;-85
2024/01/15 03:24:17;;;;;;;23.37;10.43;;;-3.00;99.90;;;;;;5053249;28;20190;-85
2024/01/15 03:26:43;;;;;;;22.83;9.00;;;-3.00;99.90;;;;;;5052028;28;20169;-86
2024/01/15 03:29:09;;;;;;;19.37;9.63;;;-3.00;99.90;;;;;;5053187;28;20249;-84
2024/01/15 03:31:34;;;;;;;19.50;8.73;;;-3.00;99.90;;;;;;5052833;28;20177;-86
2024/01/15 03:34:00;;;;;;;24.37;9.53;;;-3.00;99.90;;;;;;5052099;28;20243;-85
2024/01/15 03:36:26;;;;;;;20.43;8.93;;;-2.90;99.90;;;;;;5051856;28;20201;-86
2024/01/15 03:38:51;;;;;;;18.33;8.63;;;-3.00;99.90;;;;;;5051866;28;20173;-85
2024/01/15 03:41:17;;;;;;;21.17;8.80;;;-2.90;99.90;;;;;;5052405;28;20174;-85
2024/01/15 03:43:42;;;;;;;18.50;9.70;;;-3.00;99.90;;;;;;5051616;28;20197;-86
2024/01/15 03:46:08;;;;;;;21.57;9.10;;;-3.00;99.90;;;;;;5051745;28;20300;-86
2024/01/15 03:48:34;;;;;;;25.83;10.73;;;-3.00;99.90;;;;;;5053253;28;20255;-86
2024/01/15 03:50:59;;;;;;;20.53;8.93;;;-2.90;99.90;;;;;;5051320;28;20182;-86
2024/01/15 03:53:25;;;;;;;18.37;9.17;;;-3.00;99.90;;;;;;5052836;28;20220;-85
2024/01/15 03:55:50;;;;;;;23.67;10.03;;;-3.00;99.90;;;;;;5052779;28;20205;-85
2024/01/15 03:58:16;;;;;;;23.57;9.93;;;-2.90;99.90;;;;;;5051680;28;20180;-86
2024/01/15 04:00:42;;;;;;;20.07;8.90;;;-2.90;99.90;;;;;;5051951;28;20176;-86
2024/01/15 04:03:08;;;;;;;21.00;10.10;;;-2.90;99.90;;;;;;5051294;28;20675;-85
2024/01/15 04:05:33;;;;;;;19.47;7.43;;;-2.90;99.90;;;;;;5051628;28;20178;-86
2024/01/15 04:07:59;;;;;;;20.87;9.33;;;-2.90;99.90;;;;;;5052722;28;20260;-86
2024/01/15 04:10:25;;;;;;;27.40;10.17;;;-2.90;99.90;;;;;;5052197;28;20166;-85
2024/01/15 04:12:50;;;;;;;19.50;10.30;;;-2.90;99.90;;;;;;5051664;28;20261;-85
2024/01/15 04:15:16;;;;;;;18.70;8.83;;;-2.90;99.90;;;;;;5051242;28;20170;-86
2024/01/15 04:17:42;;;;;;;23.30;10.57;;;-2.90;99.90;;;;;;5052535;28;20201;-86
2024/01/15 04:20:08;;;;;;;20.90;10.10;;;-2.90;99.90;;;;;;5050984;28;20188;-85
2024/01/15 04:22:35;;;;;;;18.73;8.97;;;-2.90;99.90;;;;;;5050815;28;20200;-86
2024/01/15 04:25:00;;;;;;;18.80;8.60;;;-2.90;99.90;;;;;;5052689;28;20253;-86
2024/01/15 04:27:26;;;;;;;23.50;10.63;;;-2.90;99.90;;;;;;5050625;28;20246;-86
2024/01/15 04:29:52;;;;;;;22.30;9.57;;;-2.80;99.90;;;;;;5052013;28;20204;-86
2024/01/15 04:32:18;;;;;;;19.27;8.80;;;-2.80;99.90;;;;;;5051147;28;20169;-85
2024/01/15 04:34:44;;;;;;;20.73;9.30;;;-2.80;99.90;;;;;;5050952;28;20182;-86
2024/01/15 04:37:09;;;;;;;22.50;9.63;;;-2.80;99.90;;;;;;5052234;28;20263;-88
2024/01/15 04:39:35;;;;;;;23.43;9.50;;;-2.80;99.90;;;;;;5050632;28;20173;-86
2024/01/15 04:42:00;;;;;;;17.60;9.33;;;-2.80;99.90;;;;;;5050192;28;20189;-86
2024/01/15 04:44:26;;;;;;;22.10;9.67;;;-2.80;99.90;;;;;;5052084;28;20221;-86
2024/01/15 04:46:52;;;;;;;16.97;8.37;;;-2.80;99.90;;;;;;5050840;28;20272;-86
2024/01/15 04:49:17;;;;;;;21.57;9.63;;;-2.80;99.90;;;;;;5050391;28;20178;-84
2024/01/15 04:51:43;;;;;;;20.83;9.40;;;-2.80;99.90;;;;;;5050338;28;20178;-86
2024/01/15 04:54:08;;;;;;;23.77;10.20;;;-2.80;99.90;;;;;;5051852;28;20224;-86
2024/01/15 04:56:34;;;;;;;20.60;9.07;;;-2.70;99.90;;;;;;5052198;28;20205;-86
2024/01/15 04:58:59;;;;;;;23.03;9.93;;;-2.70;99.90;;;;;;5052251;28;20197;-86
2024/01/15 05:01:25;;;;;;;18.90;9.27;;;-2.70;99.90;;;;;;5052216;28;20177;-86
2024/01/15 05:03:50;;;;;;;21.57;9.77;;;-2.70;99.90;;;;;;5050969;28;20194;-86
2024/01/15 05:06:16;;;;;;;19.77;9.17;;;-2.70;99.90;;;;;;5051061;28;20182;-86
2024/01/15 05:08:41;;;;;;;24.33;9.73;;;-2.80;99.90;;;;;;5051205;28;20185;-86
2024/01/15 05:11:07;;;;;;;25.40;9.40;;;-2.70;99.90;;;;;;5051426;28;20170;-86
2024/01/15 05:13:33;;;;;;;19.60;8.93;;;-2.70;99.90;;;;;;5050864;28;20225;-87
2024/01/15 05:15:58;;;;;;;21.67;9.27;;;-2.70;99.90;;;;;;5052569;28;20198;-86
2024/01/15 05:18:24;;;;;;;18.33;8.30;;;-2.70;99.90;;;;;;5051083;28;20170;-86
2024/01/15 05:20:49;;;;;;;22.53;9.77;;;-2.70;99.90;;;;;;5050531;28;20201;-86
2024/01/15 05:23:15;;;;;;;17.30;8.70;;;-2.70;99.90;;;;;;5050877;28;20213;-86
2024/01/15 05:25:41;;;;;;;20.20;9.50;;;-2.70;99.90;;;;;;5050763;28;20173;-86
2024/01/15 05:28:06;;;;;;;21.87;9.30;;;-2.80;99.90;;;;;;5051755;28;20169;-87
2024/01/15 05:30:32;;;;;;;20.77;8.77;;;-2.70;99.90;;;;;;5050272;28;20176;-86
2024/01/15 05:33:00;;;;;;;19.10;8.27;;;-2.70;99.90;;;;;;5050658;28;20304;-86
2024/01/15 05:35:25;;;;;;;21.97;9.33;;;-2.70;99.90;;;;;;5050637;28;20178;-86
2024/01/15 05:37:51;;;;;;;18.70;8.60;;;-2.70;99.90;;;;;;5051577;28;20213;-86
2024/01/15 05:40:16;;;;;;;18.43;8.90;;;-2.70;99.90;;;;;;5051386;28;20178;-86
2024/01/15 05:42:42;;;;;;;16.03;8.30;;;-2.70;99.90;;;;;;5051796;28;20194;-86
2024/01/15 05:45:08;;;;;;;18.17;8.83;;;-2.60;99.90;;;;;;5050824;28;20175;-86
2024/01/15 05:47:34;;;;;;;21.60;8.60;;;-2.60;99.90;;;;;;5050793;28;20181;-86
2024/01/15 05:50:01;;;;;;;20.43;9.03;;;-2.60;99.90;;;;;;5050247;28;20174;-84
2024/01/15 05:52:26;;;;;;;21.70;9.73;;;-2.60;99.90;;;;;;5050918;28;20186;-87
2024/01/15 05:54:52;;;;;;;24.97;9.30;;;-2.60;99.90;;;;;;5051202;28;20174;-86
2024/01/15 05:57:18;;;;;;;18.57;8.97;;;-2.60;99.90;;;;;;5051736;28;20319;-81
2024/01/15 05:59:44;;;;;;;15.97;8.57;;;-2.60;99.90;;;;;;5051104;28;20181;-84
2024/01/15 06:02:10;;;;;;;18.87;8.93;;;-2.60;99.90;;;;;;5052966;28;20170;-83
2024/01/15 06:04:36;;;;;;;18.43;8.80;;;-2.50;99.90;;;;;;5054598;28;20765;-83
2024/01/15 06:07:02;;;;;;;18.70;8.43;;;-2.50;99.90;;;;;;5054473;28;20189;-83
2024/01/15 06:09:28;;;;;;;17.17;8.40;;;-2.50;99.90;;;;;;5056489;28;20209;-84
2024/01/15 06:11:54;;;;;;;18.07;8.20;;;-2.50;99.90;;;;;;5055880;28;20185;-84
2024/01/15 06:14:19;;;;;;;18.53;8.53;;;-2.60;99.90;;;;;;5054864;28;20193;-85
2024/01/15 06:16:45;;;;;;;16.93;8.57;;;-2.60;99.90;;;;;;5057397;28;20251;-82
2024/01/15 06:19:10;;;;;;;17.43;8.30;;;-2.50;99.90;;;;;;5056544;28;20179;-84
2024/01/15 06:21:36;;;;;;;18.73;8.73;;;-2.40;99.90;;;;;;5055517;28;20659;-84
2024/01/15 06:24:01;;;;;;;19.00;8.67;;;-2.40;99.90;;;;;;5056152;28;20213;-84
2024/01/15 06:26:27;;;;;;;19.83;9.43;;;-2.50;99.90;;;;;;5055326;28;20312;-80
2024/01/15 06:28:53;;;;;;;17.40;8.40;;;-2.50;99.90;;;;;;5060465;28;20182;-80
2024/01/15 06:31:18;;;;;;;17.20;8.40;;;-2.50;99.90;;;;;;5060075;28;20171;-79
2024/01/15 06:33:47;;;;;;;18.63;8.33;;;-2.50;99.90;;;;;;5058393;28;20193;-79
2024/01/15 06:36:12;;;;;;;16.00;7.63;;;-2.50;99.90;;;;;;5057748;28;20194;-84
2024/01/15 06:38:38;;;;;;;19.47;8.90;;;-2.50;99.90;;;;;;5057615;28;20228;-83
2024/01/15 06:41:04;;;;;;;18.30;8.70;;;-2.50;99.90;;;;;;5056235;28;20178;-82
2024/01/15 06:43:29;;;;;;;18.83;8.80;;;-2.40;99.90;;;;;;5058167;28;20195;-80
2024/01/15 06:45:55;;;;;;;18.50;8.70;;;-2.50;99.90;;;;;;5055560;28;20178;-83
2024/01/15 06:48:20;;;;;;;17.93;8.10;;;-2.40;99.90;;;;;;5056967;28;20181;-83
2024/01/15 06:50:46;;;;;;;19.73;8.60;;;-2.40;99.90;;;;;;5054929;28;20258;-84
2024/01/15 06:53:12;;;;;;;19.93;8.47;;;-2.40;99.90;;;;;;5052847;28;20206;-81
2024/01/15 06:55:39;;;;;;;21.60;8.73;;;-2.40;99.90;;;;;;5036471;28;20737;-82
2024/01/15 06:58:04;;;;;;;21.00;9.00;;;-2.40;99.90;;;;;;5054623;28;20174;-81
2024/01/15 07:00:30;;;;;;;20.17;9.00;;;-2.30;99.90;;;;;;5054145;28;20228;-85
2024/01/15 07:02:56;;;;;;;21.43;9.13;;;-2.30;99.90;;;;;;5053934;28;20650;-84
2024/01/15 07:05:22;;;;;;;15.90;8.03;;;-2.30;99.90;;;;;;5053981;28;20180;-84
2024/01/15 07:07:47;;;;;;;16.73;7.83;;;-2.30;99.90;;;;;;5054316;28;20175;-84
2024/01/15 07:10:13;;;;;;;20.00;9.07;;;-2.30;99.90;;;;;;5053777;28;20178;-84
2024/01/15 07:12:41;;;;;;;16.30;8.03;;;-2.30;99.90;;;;;;5053721;28;20197;-82
2024/01/15 07:15:08;;;;;;;20.97;9.13;;;-2.20;99.90;;;;;;5053255;28;20183;-84
2024/01/15 07:17:34;;;;;;;20.83;9.07;;;-2.20;99.90;;;;;;5054609;28;20291;-82
2024/01/15 07:19:59;;;;;;;18.77;8.27;;;-2.20;99.90;;;;;;5053589;28;20178;-82
2024/01/15 07:22:25;;;;;;;22.33;8.97;;;-2.20;99.90;;;;;;5052066;28;20240;-82
2024/01/15 07:24:50;;;;;;;21.57;9.63;;;-2.20;99.90;;;;;;5052416;28;20189;-82
2024/01/15 07:27:16;;;;;;;19.43;8.93;;;-2.20;99.90;;;;;;5053977;28;20207;-84
2024/01/15 07:29:42;;;;;;;17.57;8.53;;;-2.20;99.90;;;;;;5051827;28;20205;-82
2024/01/15 07:32:08;;;;;;;16.33;8.07;;;-2.10;99.90;;;;;;5053163;28;20201;-82
2024/01/15 07:34:34;;;;;;;20.17;9.40;;;-2.10;99.90;;;;;;5052373;28;20201;-82
2024/01/15 07:36:59;;;;;;;19.67;8.47;;;-2.10;99.90;;;;;;5052579;28;20639;-82
2024/01/15 07:39:25;;;;;;;18.47;8.73;;;-2.10;99.90;;;;;;5053015;28;20555;-83
2024/01/15 07:41:51;;;;;;;19.07;8.40;;;-2.00;99.90;;;;;;5053369;28;20171;-82
2024/01/15 07:44:17;;;;;;;20.13;8.83;;;-2.00;99.90;;;;;;5053233;28;20197;-82
2024/01/15 07:46:49;;;;;;;21.13;9.40;;;-1.90;99.90;;;;;;5051874;28;20174;-83
2024/01/15 07:49:14;;;;;;;18.30;8.27;;;-1.90;99.90;;;;;;5053206;28;20214;-82
2024/01/15 07:51:40;;;;;;;20.13;8.47;;;-2.00;99.90;;;;;;5052858;28;20175;-82
2024/01/15 07:54:06;;;;;;;18.50;9.17;;;-2.00;99.90;;;;;;5052983;28;20577;-82
2024/01/15 07:56:32;;;;;;;21.67;9.07;;;-1.90;99.90;;;;;;5052795;28;20620;-82
2024/01/15 07:58:58;;;;;;;19.93;9.13;;;-1.90;99.90;;;;;;5053207;28;20190;-82
2024/01/15 08:01:24;;;;;;;18.70;9.27;;;-2.00;99.90;;;;;;5052484;28;20564;-82
2024/01/15 08:03:50;;;;;;;18.60;9.40;;;-1.90;99.90;;;;;;5052801;28;20223;-82
2024/01/15 08:06:15;;;;;;;19.37;8.13;;;-1.90;99.90;;;;;;5052864;28;20212;-82
2024/01/15 08:08:41;;;;;;;20.07;8.77;;;-1.90;99.90;;;;;;5051460;28;20196;-82
2024/01/15 08:11:06;;;;;;;20.93;9.00;;;-1.90;99.90;;;;;;5051083;28;20178;-82
2024/01/15 08:13:32;;;;;;;20.53;9.73;;;-1.90;99.90;;;;;;5052904;28;20190;-82
2024/01/15 08:15:58;;;;;;;17.07;8.90;;;-1.90;99.90;;;;;;5052691;28;20210;-82
2024/01/15 08:18:23;;;;;;;22.70;9.17;;;-1.90;99.90;;;;;;5052577;28;20173;-83
2024/01/15 08:20:51;;;;;;;23.47;9.80;;;-2.00;99.90;;;;;;5051061;28;20175;-82
2024/01/15 08:23:17;;;;;;;22.77;9.27;;;-2.00;99.90;;;;;;5052424;28;20194;-82
2024/01/15 08:25:42;;;;;;;19.83;9.13;;;-2.00;99.90;;;;;;5052434;28;20671;-82
2024/01/15 08:28:08;;;;;;;21.90;9.47;;;-2.00;99.90;;;;;;5051615;28;20170;-82
2024/01/15 08:30:34;;;;;;;17.83;10.07;;;-2.00;99.90;;;;;;5052019;28;20167;-84
2024/01/15 08:33:00;;;;;;;21.17;9.13;;;-2.00;99.90;;;;;;5052225;28;20195;-82
2024/01/15 08:35:26;;;;;;;21.47;9.43;;;-2.00;99.90;;;;;;5052374;28;20181;-84
2024/01/15 08:37:52;;;;;;;21.83;9.90;;;-1.90;99.90;;;;;;5052043;28;20229;-82
2024/01/15 08:40:18;;;;;;;26.57;11.07;;;-2.00;99.90;;;;;;5050615;28;20171;-84
2024/01/15 08:42:45;;;;;;;23.63;10.80;;;-2.00;99.90;;;;;;5050856;28;20191;-82
2024/01/15 08:45:11;;;;;;;26.60;11.77;;;-2.10;99.90;;;;;;5052470;28;20198;-82
2024/01/15 08:47:36;;;;;;;22.60;10.80;;;-2.10;99.90;;;;;;5050819;28;20205;-83
2024/01/15 08:50:03;;;;;;;23.10;11.03;;;-2.00;99.90;;;;;;5050378;28;20726;-80
2024/01/15 08:52:29;;;;;;;24.23;10.87;;;-2.00;99.90;;;;;;5052023;28;20265;-82
2024/01/15 08:54:58;;;;;;;21.33;10.57;;;-2.00;99.90;;;;;;5051147;28;20238;-84
2024/01/15 08:57:24;;;;;;;24.33;10.90;;;-2.00;99.90;;;;;;5050912;28;20348;-82
2024/01/15 08:59:51;;;;;;;24.87;11.13;;;-2.00;99.90;;;;;;5051794;28;20273;-82
2024/01/15 09:02:16;;;;;;;23.63;10.93;;;-2.00;99.90;;;;;;5050481;28;20169;-82
2024/01/15 09:04:42;;;;;;;22.87;10.53;;;-1.90;99.90;;;;;;5052138;28;20172;-80
2024/01/15 09:07:08;;;;;;;25.00;10.87;;;-1.90;99.90;;;;;;5050762;28;20171;-80
2024/01/15 09:09:34;;;;;;;23.43;10.23;;;-1.90;99.90;;;;;;5052146;28;20175;-84
2024/01/15 09:12:00;;;;;;;22.80;10.63;;;-1.80;99.90;;;;;;5051836;28;20250;-83
2024/01/15 09:14:27;;;;;;;23.20;11.53;;;-1.80;99.90;;;;;;5051485;28;20280;-84
2024/01/15 09:16:53;;;;;;;18.60;8.70;;;-1.80;99.90;;;;;;5047988;28;20210;-84
2024/01/15 09:19:19;;;;;;;26.33;12.07;;;-1.80;99.90;;;;;;5050306;28;20229;-82
2024/01/15 09:21:44;;;;;;;23.87;11.10;;;-1.80;99.90;;;;;;5049652;28;20202;-83
2024/01/15 09:24:10;;;;;;;19.23;9.53;;;-1.80;99.90;;;;;;5050317;28;20194;-83
2024/01/15 09:26:35;;;;;;;22.03;10.23;;;-1.70;99.90;;;;;;5047783;28;20674;-83
2024/01/15 09:29:01;;;;;;;21.83;9.43;;;-1.70;99.90;;;;;;5051680;28;20291;-83
2024/01/15 09:31:27;;;;;;;21.53;9.97;;;-1.70;99.90;;;;;;5049614;28;20236;-83
2024/01/15 09:33:55;;;;;;;18.93;10.27;;;-1.70;99.90;;;;;;5051654;28;20278;-83
2024/01/15 09:36:22;;;;;;;21.03;9.37;;;-1.60;99.90;;;;;;5052041;28;20211;-83
2024/01/15 09:38:48;;;;;;;22.53;11.03;;;-1.60;99.90;;;;;;5052798;28;20175;-83
2024/01/15 09:41:14;;;;;;;23.20;9.77;;;-1.70;99.90;;;;;;5053414;28;20176;-83
2024/01/15 09:43:40;;;;;;;19.83;10.43;;;-1.70;99.90;;;;;;5055536;28;20317;-83
2024/01/15 09:46:06;;;;;;;21.77;11.30;;;-1.70;99.90;;;;;;5055581;28;20205;-83
2024/01/15 09:48:34;;;;;;;22.10;11.40;;;-1.70;99.90;;;;;;5054246;28;20207;-83
2024/01/15 09:51:01;;;;;;;18.73;10.03;;;-1.70;99.90;;;;;;5053729;28;20175;-83
2024/01/15 09:53:26;;;;;;;24.50;10.70;;;-1.70;99.90;;;;;;5055581;28;20223;-83
2024/01/15 09:55:53;;;;;;;24.33;11.03;;;-1.80;99.90;;;;;;5053389;28;20183;-84
2024/01/15 09:58:18;;;;;;;19.13;9.97;;;-1.80;99.90;;;;;;5055087;28;20179;-82
2024/01/15 10:00:44;;;;;;;25.63;11.50;;;-1.70;99.90;;;;;;5054763;28;20177;-85
2024/01/15 10:03:11;;;;;;;22.23;9.93;;;-1.70;99.90;;;;;;5054890;28;20195;-83
2024/01/15 10:05:37;;;;;;;20.00;9.67;;;-1.70;99.90;;;;;;5053880;28;20173;-84
2024/01/15 10:08:04;;;;;;;21.53;9.90;;;-1.70;99.90;;;;;;5055087;28;20269;-83
2024/01/15 10:10:31;;;;;;;20.03;10.30;;;-1.60;99.90;;;;;;5053338;28;20184;-84
2024/01/15 10:12:59;;;;;;;20.50;10.47;;;-1.60;99.90;;;;;;5055284;28;20772;-85
2024/01/15 10:15:26;;;;;;;24.93;11.43;;;-1.70;99.90;;;;;;5055144;28;20172;-85
2024/01/15 10:17:52;;;;;;;18.93;9.20;;;-1.70;99.90;;;;;;5060797;28;20218;-84
2024/01/15 10:20:18;;;;;;;20.93;10.43;;;-1.60;99.90;;;;;;5058745;28;20175;-80
2024/01/15 10:22:46;;;;;;;21.30;10.80;;;-1.60;99.90;;;;;;5055074;28;20570;-82
2024/01/15 10:25:13;;;;;;;20.87;10.10;;;-1.50;99.90;;;;;;5054810;28;20189;-82
2024/01/15 10:27:40;;;;;;;20.50;10.30;;;-1.50;99.90;;;;;;5054936;28;20181;-81
2024/01/15 10:30:06;;;;;;;23.07;10.40;;;-1.50;99.90;;;;;;5053010;28;20228;-82
2024/01/15 10:32:32;;;;;;;20.87;10.77;;;-1.50;99.90;;;;;;5054605;28;20194;-85
2024/01/15 10:34:57;;;;;;;23.57;10.77;;;-1.60;99.90;;;;;;5053627;28;20176;-85
2024/01/15 10:37:24;;;;;;;20.93;10.07;;;-1.50;99.90;;;;;;5053595;28;20204;-87
2024/01/15 10:39:51;;;;;;;24.30;11.93;;;-1.50;99.90;;;;;;5052953;28;20195;-84
2024/01/15 10:42:18;;;;;;;20.60;10.67;;;-1.50;99.90;;;;;;5054285;28;20180;-86
2024/01/15 10:44:46;;;;;;;24.67;10.63;;;-1.50;99.90;;;;;;5054545;28;20643;-84
2024/01/15 10:47:12;;;;;;;22.17;10.53;;;-1.50;99.90;;;;;;5053346;28;20219;-84
2024/01/15 10:49:38;;;;;;;38.70;16.17;;;-1.50;99.90;;;;;;5052654;28;20209;-82
2024/01/15 10:52:04;;;;;;;33.03;12.53;;;-0.40;99.90;;;;;;5052676;28;20193;-81
2024/01/15 10:54:29;;;;;;;21.50;10.23;;;0.20;99.90;;;;;;5053144;28;20231;-81
2024/01/15 10:56:56;;;;;;;22.50;10.20;;;1.20;99.90;;;;;;5052951;28;20209;-81
2024/01/15 10:59:22;;;;;;;18.43;9.47;;;1.30;99.90;;;;;;5043426;28;20188;-83
2024/01/15 11:01:49;;;;;;;17.97;9.17;;;1.30;99.90;;;;;;5054525;28;20178;-83
2024/01/15 11:04:16;;;;;;;17.20;8.73;;;1.00;99.90;;;;;;5053161;28;20199;-83
2024/01/15 11:06:46;;;;;;;19.13;9.40;;;0.80;95.60;;;;;;5055251;28;20182;-83
2024/01/15 11:09:13;;;;;;;17.27;8.97;;;0.20;99.90;;;;;;5052853;28;20181;-83
2024/01/15 11:11:44;;;;;;;18.27;9.23;;;-0.30;99.90;;;;;;5054153;28;20177;-82
2024/01/15 11:14:10;;;;;;;20.30;10.20;;;-0.50;99.90;;;;;;5054211;28;20292;-83
2024/01/15 11:17:02;;;;;;;20.33;9.93;;;-0.60;99.90;;;;;;5054064;28;20215;-83
2024/01/15 11:19:45;;;;;;;19.23;9.40;;;-0.80;99.90;;;;;;5054585;28;20172;-83
2024/01/15 11:22:33;;;;;;;20.20;9.27;;;-0.80;99.90;;;;;;5054632;28;20206;-83
2024/01/15 11:25:12;;;;;;;22.13;10.10;;;-0.80;99.90;;;;;;5053748;28;20172;-84
2024/01/15 11:27:51;;;;;;;20.40;9.30;;;-0.80;99.90;;;;;;5053455;28;20649;-82
2024/01/15 11:30:17;;;;;;;19.30;9.80;;;-0.90;99.90;;;;;;5053291;28;20181;-82
2024/01/15 11:32:43;;;;;;;18.33;9.17;;;-1.00;99.90;;;;;;5053910;28;20228;-82
2024/01/15 11:35:09;;;;;;;19.47;10.80;;;-1.00;99.90;;;;;;5053983;28;20180;-82
2024/01/15 11:38:07;;;;;;;19.00;9.13;;;-1.00;99.90;;;;;;5052025;28;20200;-82
2024/01/15 11:40:33;;;;;;;20.87;10.13;;;-1.00;99.90;;;;;;4997913;28;20227;-82
2024/01/15 11:42:59;;;;;;;21.13;10.27;;;-1.00;99.90;;;;;;5053587;28;20192;-82
2024/01/15 11:45:25;;;;;;;18.07;9.17;;;-1.00;99.90;;;;;;5052111;28;20184;-82
2024/01/15 11:48:13;;;;;;;21.13;10.53;;;-1.00;99.90;;;;;;5052389;28;20179;-82
2024/01/15 11:50:45;;;;;;;19.70;10.40;;;-1.00;99.90;;;;;;5053059;28;20643;-82
2024/01/15 11:53:18;;;;;;;17.03;8.67;;;-1.00;99.90;;;;;;5053405;28;20293;-82
2024/01/15 11:55:45;;;;;;;19.67;9.23;;;-0.90;99.90;;;;;;5053085;28;20207;-82
2024/01/15 11:58:11;;;;;;;19.23;9.10;;;-0.80;99.90;;;;;;5051986;28;20287;-82
2024/01/15 12:00:44;;;;;;;18.03;8.97;;;-0.70;99.90;;;;;;5050919;28;20625;-83
2024/01/15 12:03:10;;;;;;;16.57;8.70;;;-0.70;99.90;;;;;;5053173;28;20250;-82
2024/01/15 12:05:38;;;;;;;19.87;9.63;;;-0.70;99.90;;;;;;5051852;28;20173;-82
2024/01/15 12:08:07;;;;;;;20.23;9.07;;;-0.80;99.90;;;;;;5051480;28;20180;-83
2024/01/15 12:10:33;;;;;;;17.77;9.20;;;-0.80;99.90;;;;;;5053091;28;20239;-83
2024/01/15 12:13:15;;;;;;;17.10;8.83;;;-0.80;99.90;;;;;;5053115;28;20197;-83
2024/01/15 12:15:42;;;;;;;19.10;8.90;;;-0.70;99.90;;;;;;5051655;28;20562;-82
2024/01/15 12:18:11;;;;;;;18.70;9.70;;;-0.60;99.90;;;;;;5051840;28;20812;-84
2024/01/15 12:20:37;;;;;;;19.47;9.17;;;-0.60;99.90;;;;;;5051002;28;20174;-82
2024/01/15 12:23:05;;;;;;;19.67;9.13;;;-0.70;99.90;;;;;;5053161;28;20279;-83
2024/01/15 12:25:32;;;;;;;19.70;10.53;;;-0.80;99.90;;;;;;5051297;28;20169;-82
2024/01/15 12:28:00;;;;;;;18.63;10.00;;;-0.80;99.90;;;;;;5051284;28;20200;-83
2024/01/15 12:30:29;;;;;;;19.50;9.50;;;-0.70;99.90;;;;;;5052174;28;20559;-83